sensor_id;sensor_type;location;lat;lon;timestamp;temperature;humidity
758;DHT22;363;48.764;9.172;2023-03-07T00:00:10;4.50;98.80
758;DHT22;363;48.764;9.172;2023-03-07T00:02:37;4.90;98.80
758;DHT22;363;48.764;9.172;2023-03-07T00:05:04;4.90;98.90
758;DHT22;363;48.764;9.172;2023-03-07T00:07:30;4.80;98.50
758;DHT22;363;48.764;9.172;2023-03-07T00:09:57;5.30;99.10
758;DHT22;363;48.764;9.172;2023-03-07T00:12:23;4.70;98.80
758;DHT22;363;48.764;9.172;2023-03-07T00:14:48;4.80;98.80
758;DHT22;363;48.764;9.172;2023-03-07T00:17:14;5.00;98.80
758;DHT22;363;48.764;9.172;2023-03-07T00:19:43;4.70;98.20
758;DHT22;363;48.764;9.172;2023-03-07T00:22:09;4.30;98.00
758;DHT22;363;48.764;9.172;2023-03-07T00:24:35;4.70;98.60
758;DHT22;363;48.764;9.172;2023-03-07T00:27:01;5.00;98.70
758;DHT22;363;48.764;9.172;2023-03-07T00:29:27;5.00;98.80
758;DHT22;363;48.764;9.172;2023-03-07T00:31:53;4.90;98.60
758;DHT22;363;48.764;9.172;2023-03-07T00:34:19;4.80;98.40
758;DHT22;363;48.764;9.172;2023-03-07T00:36:44;4.80;98.60
758;DHT22;363;48.764;9.172;2023-03-07T00:39:10;5.00;98.40
758;DHT22;363;48.764;9.172;2023-03-07T00:41:36;5.00;98.60
758;DHT22;363;48.764;9.172;2023-03-07T00:44:01;4.80;98.50
758;DHT22;363;48.764;9.172;2023-03-07T00:46:27;5.10;98.50
758;DHT22;363;48.764;9.172;2023-03-07T00:48:53;5.00;98.20
758;DHT22;363;48.764;9.172;2023-03-07T00:51:20;4.20;98.10
758;DHT22;363;48.764;9.172;2023-03-07T00:53:46;5.00;97.90
758;DHT22;363;48.764;9.172;2023-03-07T00:56:15;5.00;98.20
758;DHT22;363;48.764;9.172;2023-03-07T00:58:41;4.90;98.10
758;DHT22;363;48.764;9.172;2023-03-07T01:01:07;4.40;97.80
758;DHT22;363;48.764;9.172;2023-03-07T01:03:34;5.00;97.90
758;DHT22;363;48.764;9.172;2023-03-07T01:06:20;4.80;97.50
758;DHT22;363;48.764;9.172;2023-03-07T01:08:46;4.80;97.70
758;DHT22;363;48.764;9.172;2023-03-07T01:11:12;4.90;97.40
758;DHT22;363;48.764;9.172;2023-03-07T01:13:38;4.90;97.30
758;DHT22;363;48.764;9.172;2023-03-07T01:16:22;4.90;97.40
758;DHT22;363;48.764;9.172;2023-03-07T01:18:53;4.80;97.30
758;DHT22;363;48.764;9.172;2023-03-07T01:21:24;5.70;97.90
758;DHT22;363;48.764;9.172;2023-03-07T01:23:51;4.80;97.50
758;DHT22;363;48.764;9.172;2023-03-07T01:26:20;5.30;97.70
758;DHT22;363;48.764;9.172;2023-03-07T01:28:46;4.90;97.60
758;DHT22;363;48.764;9.172;2023-03-07T01:31:12;4.60;97.40
758;DHT22;363;48.764;9.172;2023-03-07T01:33:38;4.80;97.30
758;DHT22;363;48.764;9.172;2023-03-07T01:36:04;5.10;97.70
758;DHT22;363;48.764;9.172;2023-03-07T01:38:30;5.10;97.30
758;DHT22;363;48.764;9.172;2023-03-07T01:41:00;4.90;96.90
758;DHT22;363;48.764;9.172;2023-03-07T01:43:29;4.90;97.00
758;DHT22;363;48.764;9.172;2023-03-07T01:48:39;4.90;97.10
758;DHT22;363;48.764;9.172;2023-03-07T01:51:05;5.20;96.80
758;DHT22;363;48.764;9.172;2023-03-07T01:53:31;4.80;96.40
758;DHT22;363;48.764;9.172;2023-03-07T01:55:56;5.30;96.50
758;DHT22;363;48.764;9.172;2023-03-07T01:58:22;5.30;96.00
758;DHT22;363;48.764;9.172;2023-03-07T02:00:48;4.90;96.20
758;DHT22;363;48.764;9.172;2023-03-07T02:03:54;5.10;96.30
758;DHT22;363;48.764;9.172;2023-03-07T02:06:12;5.10;96.20
758;DHT22;363;48.764;9.172;2023-03-07T02:08:39;5.00;96.10
758;DHT22;363;48.764;9.172;2023-03-07T02:11:06;4.80;96.20
758;DHT22;363;48.764;9.172;2023-03-07T02:13:32;4.60;96.30
758;DHT22;363;48.764;9.172;2023-03-07T02:15:59;4.80;96.20
758;DHT22;363;48.764;9.172;2023-03-07T02:18:29;5.10;96.50
758;DHT22;363;48.764;9.172;2023-03-07T02:28:56;4.90;96.70
758;DHT22;363;48.764;9.172;2023-03-07T02:31:22;5.10;96.60
758;DHT22;363;48.764;9.172;2023-03-07T02:33:48;4.40;95.90
758;DHT22;363;48.764;9.172;2023-03-07T02:36:18;4.90;96.20
758;DHT22;363;48.764;9.172;2023-03-07T02:38:45;4.40;96.10
758;DHT22;363;48.764;9.172;2023-03-07T02:41:14;5.00;96.40
758;DHT22;363;48.764;9.172;2023-03-07T02:43:41;5.10;96.10
758;DHT22;363;48.764;9.172;2023-03-07T02:46:07;4.20;96.20
758;DHT22;363;48.764;9.172;2023-03-07T02:48:33;5.40;96.50
758;DHT22;363;48.764;9.172;2023-03-07T02:50:58;4.90;96.40
758;DHT22;363;48.764;9.172;2023-03-07T02:53:24;4.80;96.20
758;DHT22;363;48.764;9.172;2023-03-07T02:55:50;5.40;96.10
758;DHT22;363;48.764;9.172;2023-03-07T02:58:15;5.10;95.90
758;DHT22;363;48.764;9.172;2023-03-07T03:00:41;4.50;96.00
758;DHT22;363;48.764;9.172;2023-03-07T03:03:06;5.10;96.20
758;DHT22;363;48.764;9.172;2023-03-07T03:05:32;5.50;96.40
758;DHT22;363;48.764;9.172;2023-03-07T03:07:58;5.00;96.00
758;DHT22;363;48.764;9.172;2023-03-07T03:10:23;4.90;96.10
758;DHT22;363;48.764;9.172;2023-03-07T03:12:49;5.00;96.30
758;DHT22;363;48.764;9.172;2023-03-07T03:15:15;5.10;96.30
758;DHT22;363;48.764;9.172;2023-03-07T03:17:40;4.90;96.20
758;DHT22;363;48.764;9.172;2023-03-07T03:20:07;4.60;96.10
758;DHT22;363;48.764;9.172;2023-03-07T03:22:38;4.90;96.20
758;DHT22;363;48.764;9.172;2023-03-07T03:25:06;4.80;96.30
758;DHT22;363;48.764;9.172;2023-03-07T03:27:34;4.60;96.40
758;DHT22;363;48.764;9.172;2023-03-07T03:30:00;5.00;96.90
758;DHT22;363;48.764;9.172;2023-03-07T03:32:25;4.90;96.80
758;DHT22;363;48.764;9.172;2023-03-07T03:34:51;4.60;96.20
758;DHT22;363;48.764;9.172;2023-03-07T03:37:16;4.90;96.80
758;DHT22;363;48.764;9.172;2023-03-07T03:39:42;4.70;96.50
758;DHT22;363;48.764;9.172;2023-03-07T03:42:08;4.70;96.40
758;DHT22;363;48.764;9.172;2023-03-07T03:44:33;4.80;96.70
758;DHT22;363;48.764;9.172;2023-03-07T03:46:59;4.90;96.70
758;DHT22;363;48.764;9.172;2023-03-07T03:49:25;4.80;96.50
758;DHT22;363;48.764;9.172;2023-03-07T03:51:51;4.60;96.50
758;DHT22;363;48.764;9.172;2023-03-07T03:54:16;4.30;96.10
758;DHT22;363;48.764;9.172;2023-03-07T03:56:42;4.70;96.60
758;DHT22;363;48.764;9.172;2023-03-07T03:59:07;5.30;96.90
758;DHT22;363;48.764;9.172;2023-03-07T04:01:33;4.70;96.50
758;DHT22;363;48.764;9.172;2023-03-07T04:03:59;4.80;96.80
758;DHT22;363;48.764;9.172;2023-03-07T04:06:30;4.90;96.60
758;DHT22;363;48.764;9.172;2023-03-07T04:08:57;4.30;96.50
758;DHT22;363;48.764;9.172;2023-03-07T04:11:24;4.80;96.70
758;DHT22;363;48.764;9.172;2023-03-07T04:13:50;4.20;96.50
758;DHT22;363;48.764;9.172;2023-03-07T04:16:16;4.90;97.00
758;DHT22;363;48.764;9.172;2023-03-07T04:18:42;4.90;97.10
758;DHT22;363;48.764;9.172;2023-03-07T04:21:08;4.70;97.10
758;DHT22;363;48.764;9.172;2023-03-07T04:23:37;5.10;97.30
758;DHT22;363;48.764;9.172;2023-03-07T04:26:05;4.90;97.20
758;DHT22;363;48.764;9.172;2023-03-07T04:28:33;4.60;96.70
758;DHT22;363;48.764;9.172;2023-03-07T04:31:18;4.70;97.10
758;DHT22;363;48.764;9.172;2023-03-07T04:33:44;4.50;97.00
758;DHT22;363;48.764;9.172;2023-03-07T04:36:11;4.60;97.00
758;DHT22;363;48.764;9.172;2023-03-07T04:38:37;4.60;97.00
758;DHT22;363;48.764;9.172;2023-03-07T04:41:05;4.80;96.80
758;DHT22;363;48.764;9.172;2023-03-07T04:43:31;4.10;96.70
758;DHT22;363;48.764;9.172;2023-03-07T04:45:56;4.90;96.90
758;DHT22;363;48.764;9.172;2023-03-07T04:48:22;4.80;96.20
758;DHT22;363;48.764;9.172;2023-03-07T04:50:49;4.60;96.50
758;DHT22;363;48.764;9.172;2023-03-07T04:53:16;4.50;96.50
758;DHT22;363;48.764;9.172;2023-03-07T04:55:41;5.10;96.60
758;DHT22;363;48.764;9.172;2023-03-07T04:58:07;5.00;96.00
758;DHT22;363;48.764;9.172;2023-03-07T05:00:38;4.30;96.20
758;DHT22;363;48.764;9.172;2023-03-07T05:03:04;5.10;96.60
758;DHT22;363;48.764;9.172;2023-03-07T05:05:29;5.00;96.60
758;DHT22;363;48.764;9.172;2023-03-07T05:07:55;5.00;96.40
758;DHT22;363;48.764;9.172;2023-03-07T05:10:21;5.00;96.60
758;DHT22;363;48.764;9.172;2023-03-07T05:12:46;5.00;96.80
758;DHT22;363;48.764;9.172;2023-03-07T05:15:12;4.80;96.50
758;DHT22;363;48.764;9.172;2023-03-07T05:17:38;4.90;96.70
758;DHT22;363;48.764;9.172;2023-03-07T05:20:04;4.70;96.50
758;DHT22;363;48.764;9.172;2023-03-07T05:22:30;4.70;96.70
758;DHT22;363;48.764;9.172;2023-03-07T05:24:55;4.90;96.50
758;DHT22;363;48.764;9.172;2023-03-07T05:27:22;4.90;96.70
758;DHT22;363;48.764;9.172;2023-03-07T05:29:48;4.70;96.70
758;DHT22;363;48.764;9.172;2023-03-07T05:32:13;4.80;96.40
758;DHT22;363;48.764;9.172;2023-03-07T05:34:40;4.70;96.70
758;DHT22;363;48.764;9.172;2023-03-07T05:37:05;4.80;96.70
758;DHT22;363;48.764;9.172;2023-03-07T05:39:31;4.90;96.60
758;DHT22;363;48.764;9.172;2023-03-07T05:41:56;4.60;96.50
758;DHT22;363;48.764;9.172;2023-03-07T05:44:22;4.90;96.30
758;DHT22;363;48.764;9.172;2023-03-07T05:46:48;4.80;96.50
758;DHT22;363;48.764;9.172;2023-03-07T05:49:13;4.40;96.20
758;DHT22;363;48.764;9.172;2023-03-07T05:51:39;4.90;96.30
758;DHT22;363;48.764;9.172;2023-03-07T05:54:04;5.00;96.30
758;DHT22;363;48.764;9.172;2023-03-07T05:56:30;4.20;95.50
758;DHT22;363;48.764;9.172;2023-03-07T05:58:56;4.70;96.00
758;DHT22;363;48.764;9.172;2023-03-07T06:01:22;4.90;95.80
758;DHT22;363;48.764;9.172;2023-03-07T06:03:47;4.70;95.80
758;DHT22;363;48.764;9.172;2023-03-07T06:06:13;4.90;95.60
758;DHT22;363;48.764;9.172;2023-03-07T06:08:39;4.90;95.40
758;DHT22;363;48.764;9.172;2023-03-07T06:11:04;4.20;94.90
758;DHT22;363;48.764;9.172;2023-03-07T06:13:30;4.90;95.40
758;DHT22;363;48.764;9.172;2023-03-07T06:15:56;4.70;95.20
758;DHT22;363;48.764;9.172;2023-03-07T06:18:23;4.90;94.90
758;DHT22;363;48.764;9.172;2023-03-07T06:21:00;4.80;95.30
758;DHT22;363;48.764;9.172;2023-03-07T06:23:27;4.80;95.20
758;DHT22;363;48.764;9.172;2023-03-07T06:25:53;5.00;95.20
758;DHT22;363;48.764;9.172;2023-03-07T06:28:19;5.00;94.60
758;DHT22;363;48.764;9.172;2023-03-07T06:30:45;4.90;95.00
758;DHT22;363;48.764;9.172;2023-03-07T06:33:11;4.80;95.00
758;DHT22;363;48.764;9.172;2023-03-07T06:35:40;4.90;95.00
758;DHT22;363;48.764;9.172;2023-03-07T06:38:07;5.00;94.40
758;DHT22;363;48.764;9.172;2023-03-07T06:40:32;4.90;94.90
758;DHT22;363;48.764;9.172;2023-03-07T06:42:58;5.40;95.20
758;DHT22;363;48.764;9.172;2023-03-07T06:45:24;5.00;94.90
758;DHT22;363;48.764;9.172;2023-03-07T06:47:50;5.20;95.00
758;DHT22;363;48.764;9.172;2023-03-07T06:50:16;5.30;95.10
758;DHT22;363;48.764;9.172;2023-03-07T06:52:42;5.10;95.00
758;DHT22;363;48.764;9.172;2023-03-07T06:55:08;5.40;94.70
758;DHT22;363;48.764;9.172;2023-03-07T06:57:34;5.20;94.10
758;DHT22;363;48.764;9.172;2023-03-07T07:00:01;5.20;94.30
758;DHT22;363;48.764;9.172;2023-03-07T07:02:28;5.30;94.30
758;DHT22;363;48.764;9.172;2023-03-07T07:04:53;4.90;94.00
758;DHT22;363;48.764;9.172;2023-03-07T07:07:19;5.40;94.20
758;DHT22;363;48.764;9.172;2023-03-07T07:09:45;5.60;94.20
758;DHT22;363;48.764;9.172;2023-03-07T07:12:10;5.50;94.00
758;DHT22;363;48.764;9.172;2023-03-07T07:14:36;6.10;94.20
758;DHT22;363;48.764;9.172;2023-03-07T07:17:02;5.80;93.90
758;DHT22;363;48.764;9.172;2023-03-07T07:19:27;5.80;93.70
758;DHT22;363;48.764;9.172;2023-03-07T07:21:53;5.40;93.50
758;DHT22;363;48.764;9.172;2023-03-07T07:24:19;5.90;93.50
758;DHT22;363;48.764;9.172;2023-03-07T07:26:44;6.00;93.30
758;DHT22;363;48.764;9.172;2023-03-07T07:29:10;6.00;93.40
758;DHT22;363;48.764;9.172;2023-03-07T07:31:36;6.40;93.20
758;DHT22;363;48.764;9.172;2023-03-07T07:34:02;6.40;92.90
758;DHT22;363;48.764;9.172;2023-03-07T07:36:28;6.60;92.60
758;DHT22;363;48.764;9.172;2023-03-07T07:38:54;7.00;92.40
758;DHT22;363;48.764;9.172;2023-03-07T07:41:20;6.10;91.70
758;DHT22;363;48.764;9.172;2023-03-07T07:43:45;6.70;91.80
758;DHT22;363;48.764;9.172;2023-03-07T07:46:12;6.60;91.70
758;DHT22;363;48.764;9.172;2023-03-07T07:48:38;6.80;91.70
758;DHT22;363;48.764;9.172;2023-03-07T07:51:04;6.70;91.50
758;DHT22;363;48.764;9.172;2023-03-07T07:53:30;6.60;91.70
758;DHT22;363;48.764;9.172;2023-03-07T07:55:56;6.70;91.70
758;DHT22;363;48.764;9.172;2023-03-07T07:58:22;6.80;91.00
758;DHT22;363;48.764;9.172;2023-03-07T08:00:48;6.90;91.50
758;DHT22;363;48.764;9.172;2023-03-07T08:03:14;7.40;91.60
758;DHT22;363;48.764;9.172;2023-03-07T08:05:43;7.00;91.30
758;DHT22;363;48.764;9.172;2023-03-07T08:08:09;7.10;91.10
758;DHT22;363;48.764;9.172;2023-03-07T08:10:35;7.50;91.10
758;DHT22;363;48.764;9.172;2023-03-07T08:13:01;7.70;90.80
758;DHT22;363;48.764;9.172;2023-03-07T08:15:27;7.70;90.10
758;DHT22;363;48.764;9.172;2023-03-07T08:17:53;8.30;90.30
758;DHT22;363;48.764;9.172;2023-03-07T08:20:18;8.50;89.70
758;DHT22;363;48.764;9.172;2023-03-07T08:22:48;8.50;88.30
758;DHT22;363;48.764;9.172;2023-03-07T08:25:19;8.80;87.90
758;DHT22;363;48.764;9.172;2023-03-07T08:27:45;8.50;87.80
758;DHT22;363;48.764;9.172;2023-03-07T08:30:12;8.50;87.50
758;DHT22;363;48.764;9.172;2023-03-07T08:32:37;8.70;86.20
758;DHT22;363;48.764;9.172;2023-03-07T08:35:03;8.60;86.30
758;DHT22;363;48.764;9.172;2023-03-07T08:37:29;8.70;86.60
758;DHT22;363;48.764;9.172;2023-03-07T08:39:55;8.60;86.50
758;DHT22;363;48.764;9.172;2023-03-07T08:42:20;8.90;86.20
758;DHT22;363;48.764;9.172;2023-03-07T08:44:46;9.10;85.50
758;DHT22;363;48.764;9.172;2023-03-07T08:47:11;9.30;84.30
758;DHT22;363;48.764;9.172;2023-03-07T08:49:38;9.60;83.20
758;DHT22;363;48.764;9.172;2023-03-07T08:52:04;9.80;82.30
758;DHT22;363;48.764;9.172;2023-03-07T08:54:30;10.10;79.60
758;DHT22;363;48.764;9.172;2023-03-07T08:56:57;9.90;79.30
758;DHT22;363;48.764;9.172;2023-03-07T08:59:23;9.80;79.40
758;DHT22;363;48.764;9.172;2023-03-07T09:01:49;9.80;80.10
758;DHT22;363;48.764;9.172;2023-03-07T09:04:14;9.30;80.40
758;DHT22;363;48.764;9.172;2023-03-07T09:06:40;9.70;80.80
758;DHT22;363;48.764;9.172;2023-03-07T09:09:05;9.80;81.00
758;DHT22;363;48.764;9.172;2023-03-07T09:11:31;9.70;80.90
758;DHT22;363;48.764;9.172;2023-03-07T09:13:57;10.10;79.90
758;DHT22;363;48.764;9.172;2023-03-07T09:16:22;8.80;79.50
758;DHT22;363;48.764;9.172;2023-03-07T09:18:49;9.40;79.40
758;DHT22;363;48.764;9.172;2023-03-07T09:21:14;9.40;78.10
758;DHT22;363;48.764;9.172;2023-03-07T09:23:42;8.90;77.40
758;DHT22;363;48.764;9.172;2023-03-07T09:26:08;9.30;77.20
758;DHT22;363;48.764;9.172;2023-03-07T09:28:34;9.60;76.90
758;DHT22;363;48.764;9.172;2023-03-07T09:31:06;9.50;76.80
758;DHT22;363;48.764;9.172;2023-03-07T09:33:32;9.30;76.90
758;DHT22;363;48.764;9.172;2023-03-07T09:35:58;9.20;76.20
758;DHT22;363;48.764;9.172;2023-03-07T09:38:23;8.60;76.20
758;DHT22;363;48.764;9.172;2023-03-07T09:40:49;9.10;76.40
758;DHT22;363;48.764;9.172;2023-03-07T09:43:24;8.70;76.80
758;DHT22;363;48.764;9.172;2023-03-07T09:46:31;8.60;77.70
758;DHT22;363;48.764;9.172;2023-03-07T09:51:41;8.70;78.90
758;DHT22;363;48.764;9.172;2023-03-07T09:54:18;8.30;78.60
758;DHT22;363;48.764;9.172;2023-03-07T09:56:59;8.00;78.60
758;DHT22;363;48.764;9.172;2023-03-07T09:59:47;8.30;79.80
758;DHT22;363;48.764;9.172;2023-03-07T10:02:35;7.90;79.10
758;DHT22;363;48.764;9.172;2023-03-07T10:07:29;7.70;79.80
758;DHT22;363;48.764;9.172;2023-03-07T10:10:31;7.60;80.30
758;DHT22;363;48.764;9.172;2023-03-07T10:16:00;7.70;79.70
758;DHT22;363;48.764;9.172;2023-03-07T10:27:04;7.50;79.60
758;DHT22;363;48.764;9.172;2023-03-07T10:29:41;7.50;79.90
758;DHT22;363;48.764;9.172;2023-03-07T10:32:20;7.50;79.40
758;DHT22;363;48.764;9.172;2023-03-07T10:34:56;6.90;78.90
758;DHT22;363;48.764;9.172;2023-03-07T10:37:40;7.60;79.40
758;DHT22;363;48.764;9.172;2023-03-07T10:42:58;7.70;80.70
758;DHT22;363;48.764;9.172;2023-03-07T10:45:28;7.60;81.30
758;DHT22;363;48.764;9.172;2023-03-07T10:47:57;7.50;81.50
758;DHT22;363;48.764;9.172;2023-03-07T10:53:23;7.50;83.20
758;DHT22;363;48.764;9.172;2023-03-07T10:55:50;7.40;82.80
758;DHT22;363;48.764;9.172;2023-03-07T11:01:30;7.40;81.40
758;DHT22;363;48.764;9.172;2023-03-07T11:03:39;7.50;80.10
758;DHT22;363;48.764;9.172;2023-03-07T11:06:22;7.30;79.50
758;DHT22;363;48.764;9.172;2023-03-07T11:08:49;7.40;79.30
758;DHT22;363;48.764;9.172;2023-03-07T11:11:23;7.50;79.60
758;DHT22;363;48.764;9.172;2023-03-07T11:14:15;7.40;79.90
758;DHT22;363;48.764;9.172;2023-03-07T11:17:01;7.40;78.70
758;DHT22;363;48.764;9.172;2023-03-07T11:19:40;7.20;78.00
758;DHT22;363;48.764;9.172;2023-03-07T11:22:21;7.50;78.60
758;DHT22;363;48.764;9.172;2023-03-07T11:24:55;7.40;78.20
758;DHT22;363;48.764;9.172;2023-03-07T11:27:23;7.40;79.20
758;DHT22;363;48.764;9.172;2023-03-07T11:32:39;7.50;79.50
758;DHT22;363;48.764;9.172;2023-03-07T11:35:12;7.30;78.50
758;DHT22;363;48.764;9.172;2023-03-07T11:38:01;7.00;77.50
758;DHT22;363;48.764;9.172;2023-03-07T11:40:50;7.10;77.50
758;DHT22;363;48.764;9.172;2023-03-07T11:46:50;7.30;78.30
758;DHT22;363;48.764;9.172;2023-03-07T11:49:38;7.20;78.70
758;DHT22;363;48.764;9.172;2023-03-07T11:52:30;7.40;78.20
758;DHT22;363;48.764;9.172;2023-03-07T12:06:21;7.30;77.60
758;DHT22;363;48.764;9.172;2023-03-07T12:22:27;7.50;76.00
758;DHT22;363;48.764;9.172;2023-03-07T12:25:01;7.50;76.00
758;DHT22;363;48.764;9.172;2023-03-07T12:30:12;7.40;76.40
758;DHT22;363;48.764;9.172;2023-03-07T12:32:39;7.50;75.60
758;DHT22;363;48.764;9.172;2023-03-07T12:35:23;7.80;75.60
758;DHT22;363;48.764;9.172;2023-03-07T12:38:22;7.70;75.40
758;DHT22;363;48.764;9.172;2023-03-07T12:40:55;7.90;74.30
758;DHT22;363;48.764;9.172;2023-03-07T12:43:32;7.90;74.00
758;DHT22;363;48.764;9.172;2023-03-07T12:49:28;8.70;73.10
758;DHT22;363;48.764;9.172;2023-03-07T12:51:59;8.60;72.80
758;DHT22;363;48.764;9.172;2023-03-07T12:54:31;9.40;72.70
758;DHT22;363;48.764;9.172;2023-03-07T12:57:11;8.90;70.90
758;DHT22;363;48.764;9.172;2023-03-07T12:59:41;9.20;71.50
758;DHT22;363;48.764;9.172;2023-03-07T13:04:41;8.90;69.60
758;DHT22;363;48.764;9.172;2023-03-07T13:09:46;9.10;71.60
758;DHT22;363;48.764;9.172;2023-03-07T13:14:43;9.00;71.60
758;DHT22;363;48.764;9.172;2023-03-07T13:20:40;8.80;71.90
758;DHT22;363;48.764;9.172;2023-03-07T13:53:24;8.70;71.90
758;DHT22;363;48.764;9.172;2023-03-07T14:04:31;8.40;72.80
758;DHT22;363;48.764;9.172;2023-03-07T14:09:51;8.70;73.10
758;DHT22;363;48.764;9.172;2023-03-07T14:26:39;8.50;72.70
758;DHT22;363;48.764;9.172;2023-03-07T14:29:18;8.80;72.60
758;DHT22;363;48.764;9.172;2023-03-07T14:31:48;8.80;72.60
758;DHT22;363;48.764;9.172;2023-03-07T14:34:33;8.50;72.60
758;DHT22;363;48.764;9.172;2023-03-07T14:37:00;8.70;73.20
758;DHT22;363;48.764;9.172;2023-03-07T14:45:33;8.90;73.50
758;DHT22;363;48.764;9.172;2023-03-07T14:50:43;8.60;73.20
758;DHT22;363;48.764;9.172;2023-03-07T14:53:25;8.50;73.10
758;DHT22;363;48.764;9.172;2023-03-07T14:55:53;8.60;72.50
758;DHT22;363;48.764;9.172;2023-03-07T14:58:30;8.80;72.40
758;DHT22;363;48.764;9.172;2023-03-07T15:01:30;8.80;72.50
758;DHT22;363;48.764;9.172;2023-03-07T15:03:56;8.90;71.50
758;DHT22;363;48.764;9.172;2023-03-07T15:06:24;9.00;70.70
758;DHT22;363;48.764;9.172;2023-03-07T15:08:50;9.20;69.70
758;DHT22;363;48.764;9.172;2023-03-07T15:11:45;9.20;70.30
758;DHT22;363;48.764;9.172;2023-03-07T15:14:40;9.20;69.40
758;DHT22;363;48.764;9.172;2023-03-07T15:17:24;9.50;69.70
758;DHT22;363;48.764;9.172;2023-03-07T15:20:02;9.50;69.20
758;DHT22;363;48.764;9.172;2023-03-07T15:22:32;9.40;69.60
758;DHT22;363;48.764;9.172;2023-03-07T15:25:05;9.30;70.30
758;DHT22;363;48.764;9.172;2023-03-07T15:27:31;9.00;70.10
758;DHT22;363;48.764;9.172;2023-03-07T15:30:02;9.00;70.20
758;DHT22;363;48.764;9.172;2023-03-07T15:32:36;8.90;71.10
758;DHT22;363;48.764;9.172;2023-03-07T15:43:17;9.00;72.80
758;DHT22;363;48.764;9.172;2023-03-07T15:46:05;8.80;72.30
758;DHT22;363;48.764;9.172;2023-03-07T15:48:49;8.80;72.70
758;DHT22;363;48.764;9.172;2023-03-07T15:51:21;8.80;73.20
758;DHT22;363;48.764;9.172;2023-03-07T15:54:02;8.80;73.50
758;DHT22;363;48.764;9.172;2023-03-07T15:56:31;9.10;73.40
758;DHT22;363;48.764;9.172;2023-03-07T15:59:23;9.10;72.90
758;DHT22;363;48.764;9.172;2023-03-07T16:01:51;9.20;73.80
758;DHT22;363;48.764;9.172;2023-03-07T16:04:37;8.90;73.60
758;DHT22;363;48.764;9.172;2023-03-07T16:07:04;9.00;72.90
758;DHT22;363;48.764;9.172;2023-03-07T16:09:30;8.90;72.70
758;DHT22;363;48.764;9.172;2023-03-07T16:11:56;8.80;72.80
758;DHT22;363;48.764;9.172;2023-03-07T16:14:24;8.80;72.90
758;DHT22;363;48.764;9.172;2023-03-07T16:16:56;8.50;73.50
758;DHT22;363;48.764;9.172;2023-03-07T16:19:23;8.70;74.10
758;DHT22;363;48.764;9.172;2023-03-07T16:21:48;8.40;74.80
758;DHT22;363;48.764;9.172;2023-03-07T16:24:14;8.20;74.90
758;DHT22;363;48.764;9.172;2023-03-07T16:26:41;8.30;76.40
758;DHT22;363;48.764;9.172;2023-03-07T16:29:16;8.50;75.40
758;DHT22;363;48.764;9.172;2023-03-07T16:31:42;8.10;75.60
758;DHT22;363;48.764;9.172;2023-03-07T16:34:19;8.50;75.80
758;DHT22;363;48.764;9.172;2023-03-07T16:36:45;8.30;76.00
758;DHT22;363;48.764;9.172;2023-03-07T16:39:12;8.20;76.00
758;DHT22;363;48.764;9.172;2023-03-07T16:41:43;8.30;76.10
758;DHT22;363;48.764;9.172;2023-03-07T16:44:15;8.40;76.80
758;DHT22;363;48.764;9.172;2023-03-07T16:46:42;8.20;76.70
758;DHT22;363;48.764;9.172;2023-03-07T16:49:17;8.30;77.40
758;DHT22;363;48.764;9.172;2023-03-07T16:51:43;8.70;77.40
758;DHT22;363;48.764;9.172;2023-03-07T16:54:09;8.40;77.30
758;DHT22;363;48.764;9.172;2023-03-07T16:56:40;7.80;76.50
758;DHT22;363;48.764;9.172;2023-03-07T16:59:08;7.70;78.30
758;DHT22;363;48.764;9.172;2023-03-07T17:01:37;8.10;78.20
758;DHT22;363;48.764;9.172;2023-03-07T17:04:03;7.60;76.30
758;DHT22;363;48.764;9.172;2023-03-07T17:06:29;8.00;76.90
758;DHT22;363;48.764;9.172;2023-03-07T17:08:54;8.00;76.60
758;DHT22;363;48.764;9.172;2023-03-07T17:11:22;8.30;77.10
758;DHT22;363;48.764;9.172;2023-03-07T17:13:51;8.00;77.00
758;DHT22;363;48.764;9.172;2023-03-07T17:16:18;8.00;77.30
758;DHT22;363;48.764;9.172;2023-03-07T17:18:44;8.10;77.30
758;DHT22;363;48.764;9.172;2023-03-07T17:21:14;7.80;77.30
758;DHT22;363;48.764;9.172;2023-03-07T17:23:40;8.00;77.60
758;DHT22;363;48.764;9.172;2023-03-07T17:26:33;7.90;78.40
758;DHT22;363;48.764;9.172;2023-03-07T17:28:59;7.80;79.10
758;DHT22;363;48.764;9.172;2023-03-07T17:31:27;7.00;77.30
758;DHT22;363;48.764;9.172;2023-03-07T17:33:52;7.70;78.80
758;DHT22;363;48.764;9.172;2023-03-07T17:36:18;7.50;78.50
758;DHT22;363;48.764;9.172;2023-03-07T17:38:44;8.00;79.40
758;DHT22;363;48.764;9.172;2023-03-07T17:41:09;7.60;78.30
758;DHT22;363;48.764;9.172;2023-03-07T17:43:36;7.20;78.70
758;DHT22;363;48.764;9.172;2023-03-07T17:46:09;7.70;80.00
758;DHT22;363;48.764;9.172;2023-03-07T17:48:37;7.50;79.50
758;DHT22;363;48.764;9.172;2023-03-07T17:51:09;7.20;80.10
758;DHT22;363;48.764;9.172;2023-03-07T17:53:36;6.60;79.10
758;DHT22;363;48.764;9.172;2023-03-07T17:56:10;7.40;81.10
758;DHT22;363;48.764;9.172;2023-03-07T17:58:37;6.80;80.30
758;DHT22;363;48.764;9.172;2023-03-07T18:01:04;6.40;80.40
758;DHT22;363;48.764;9.172;2023-03-07T18:03:33;6.90;81.30
758;DHT22;363;48.764;9.172;2023-03-07T18:05:58;6.80;81.10
758;DHT22;363;48.764;9.172;2023-03-07T18:08:25;6.70;81.60
758;DHT22;363;48.764;9.172;2023-03-07T18:10:50;6.70;81.90
758;DHT22;363;48.764;9.172;2023-03-07T18:13:16;6.60;81.70
758;DHT22;363;48.764;9.172;2023-03-07T18:15:46;6.50;81.30
758;DHT22;363;48.764;9.172;2023-03-07T18:18:11;6.80;82.10
758;DHT22;363;48.764;9.172;2023-03-07T18:20:37;6.90;81.30
758;DHT22;363;48.764;9.172;2023-03-07T18:23:03;7.10;81.30
758;DHT22;363;48.764;9.172;2023-03-07T18:25:29;6.90;81.10
758;DHT22;363;48.764;9.172;2023-03-07T18:27:54;6.30;81.50
758;DHT22;363;48.764;9.172;2023-03-07T18:30:20;7.00;81.50
758;DHT22;363;48.764;9.172;2023-03-07T18:32:46;6.80;80.70
758;DHT22;363;48.764;9.172;2023-03-07T18:35:12;6.90;80.50
758;DHT22;363;48.764;9.172;2023-03-07T18:37:40;7.00;81.00
758;DHT22;363;48.764;9.172;2023-03-07T18:40:06;6.50;80.50
758;DHT22;363;48.764;9.172;2023-03-07T18:42:32;7.10;81.00
758;DHT22;363;48.764;9.172;2023-03-07T18:44:58;7.00;80.60
758;DHT22;363;48.764;9.172;2023-03-07T18:47:23;7.00;81.30
758;DHT22;363;48.764;9.172;2023-03-07T18:49:49;7.00;82.30
758;DHT22;363;48.764;9.172;2023-03-07T18:52:17;6.40;80.70
758;DHT22;363;48.764;9.172;2023-03-07T18:54:43;6.90;81.40
758;DHT22;363;48.764;9.172;2023-03-07T18:57:09;6.80;81.40
758;DHT22;363;48.764;9.172;2023-03-07T18:59:34;7.00;81.80
758;DHT22;363;48.764;9.172;2023-03-07T19:02:00;6.90;82.10
758;DHT22;363;48.764;9.172;2023-03-07T19:04:28;7.50;82.50
758;DHT22;363;48.764;9.172;2023-03-07T19:06:54;7.50;82.30
758;DHT22;363;48.764;9.172;2023-03-07T19:09:22;6.90;81.90
758;DHT22;363;48.764;9.172;2023-03-07T19:11:50;7.10;81.50
758;DHT22;363;48.764;9.172;2023-03-07T19:14:16;6.90;81.20
758;DHT22;363;48.764;9.172;2023-03-07T19:16:42;7.00;81.60
758;DHT22;363;48.764;9.172;2023-03-07T19:19:08;6.50;80.80
758;DHT22;363;48.764;9.172;2023-03-07T19:21:34;7.00;81.70
758;DHT22;363;48.764;9.172;2023-03-07T19:24:00;7.00;81.50
758;DHT22;363;48.764;9.172;2023-03-07T19:26:28;7.00;82.00
758;DHT22;363;48.764;9.172;2023-03-07T19:28:55;6.40;80.90
758;DHT22;363;48.764;9.172;2023-03-07T19:31:24;6.70;81.40
758;DHT22;363;48.764;9.172;2023-03-07T19:33:50;6.90;81.60
758;DHT22;363;48.764;9.172;2023-03-07T19:36:21;7.00;81.70
758;DHT22;363;48.764;9.172;2023-03-07T19:38:49;7.00;81.10